Pagina principale
METAR-TAF:

METAR-TAF

Aeroporti :

Aeroporto Internazionale del Cairo

Il Cairo, Egitto

latitudine: 30-08N, longitudine: 031-24E, altezza: 64 m

Osservazione

Il bollettino è stato emesso 24 minuti fa, alle 06:00 UTC
Vento calmo
Temperature 13°C
Umidità 67%
Pressione 1021 hPa
Visibilità: 2000 m
foschia

METAR: HECA 210600Z 00000KT 2000 HZ NSC 13/07 Q1021 NOSIG

Ora: 08:24 (06:24 UTC)

Previsione

Il bollettino è stato emesso 1 ora e 24 minuti fa, alle 05:00 UTC
Previsione valida dal 21 alle 06 UTC al 22 alle 12 UTC
Vento 8 kt da nord/nord-ovest
Visibilità: 6000 m
Temporaneamente
dal 21 alle 06 UTC al 21 alle 10 UTC
Vento 3 kt da direzioni variabili
Visibilità: 3000 m
foschia

TAF: HECA 210500Z 2106/2212 33008KT 6000 NSC TEMPO 2106/2110 VRB03KT 3000 HZ

Osservazioni e previsioni meteorologiche di più di 4000 aeroporti (messaggi METAR e TAF).

Le stazioni disponibili sono rappresentate dai dischi gialli e rossi sulla carta.

Puntare il mouse per vedere il nome della stazione.

Clicca sopra per visualizzare le osservazioni e previsioni meteorologiche.

Per cambiare la mappa : fare clic sui pulsanti verdi con una croce nera per ingrandire, il pulsante verde con un trattino per diminuire, o sulla freccia verde per le mappe adiacenti.


METAR-TAF: